Terminal Aerodrome Forecast
Issued by NWS

Home | Current Version | Previous Version | Text Only | Print | Product List | Glossary On
Versions: 1 2 3 4 5 6 7 8 9 10 11 12 13 14 15 16 17 18 19 20 21 22 23 24 25 26 27 28 29 30 31 32 33 34 35 36 37 38 39 40 41 42 43 44 45 46 47 48
000
FTUS44 KHGX 260103 AAA
TAFSGR
TAF AMD
KSGR 260103Z 2601/2624 13007KT P6SM BKN250
     FM260600 15009KT P6SM SCT035 BKN250
     FM261200 15008KT P6SM BKN025
     FM261700 16014KT P6SM VCSH BKN020=

USA.gov is the U.S. government's official web portal to all federal, state and local government web resources and services.